Terminal Aerodrome Forecast
Issued by NWS Wakefield, VA

Home | Current Version | Previous Version | Text Only | Print | Product List | Glossary On
Versions: 1 2 3 4 5 6 7 8 9 10 11 12 13 14
000
FTUS41 KAKQ 272300
TAFSBY
TAF
KSBY 272320Z 2800/2824 VRB03KT P6SM SKC
     FM280400 00000KT 2SM BR SKC
      TEMPO 2805/2807 1/2SM FG VV002
     FM280700 VRB04KT 2SM BR BKN070
     FM281200 34011KT P6SM SCT070=

USA.gov is the U.S. government's official web portal to all federal, state and local government web resources and services.